createdAt,value
2018-07-17T00:00:44.631Z,19.60
2018-07-17T00:03:11.629Z,19.50
2018-07-17T00:08:05.728Z,19.50
2018-07-17T00:10:32.712Z,19.50
2018-07-17T00:13:00.577Z,19.30
2018-07-17T00:15:27.562Z,19.30
2018-07-17T00:17:54.550Z,19.40
2018-07-17T00:20:21.608Z,19.50
2018-07-17T00:22:48.765Z,19.40
2018-07-17T00:25:15.758Z,19.40
2018-07-17T00:27:42.796Z,19.30
2018-07-17T00:30:09.786Z,19.30
2018-07-17T00:35:15.311Z,19.50
2018-07-17T00:40:10.213Z,19.60
2018-07-17T00:42:38.668Z,19.50
2018-07-17T00:45:06.462Z,19.40
2018-07-17T00:47:33.456Z,19.40
2018-07-17T00:50:00.490Z,19.30
2018-07-17T00:52:27.490Z,19.40
2018-07-17T00:54:55.421Z,19.50
2018-07-17T00:57:22.477Z,19.60
2018-07-17T00:59:49.454Z,19.60
2018-07-17T01:02:16.448Z,19.60
2018-07-17T01:04:43.485Z,19.60
2018-07-17T01:07:10.473Z,19.60
2018-07-17T01:09:37.453Z,19.50
2018-07-17T01:12:04.539Z,19.50
2018-07-17T01:14:31.489Z,19.50
2018-07-17T01:16:59.427Z,19.50
2018-07-17T01:19:26.464Z,19.40
2018-07-17T01:24:20.519Z,19.20
2018-07-17T01:26:47.547Z,19.30
2018-07-17T01:29:15.419Z,19.30
2018-07-17T01:31:42.406Z,19.40
2018-07-17T01:34:10.282Z,19.40
2018-07-17T01:36:37.273Z,19.40
2018-07-17T01:41:42.767Z,19.40
2018-07-17T01:46:36.837Z,19.50
2018-07-17T01:49:03.867Z,19.40
2018-07-17T01:51:31.694Z,19.30
2018-07-17T01:53:58.696Z,19.20
2018-07-17T01:56:25.757Z,19.00
2018-07-17T01:58:52.738Z,18.90
2018-07-17T02:01:19.727Z,19.00
2018-07-17T02:03:47.655Z,18.80
2018-07-17T02:06:14.645Z,18.70
2018-07-17T02:08:41.634Z,18.50
2018-07-17T02:11:08.674Z,18.50
2018-07-17T02:13:35.656Z,18.50
2018-07-17T02:16:02.651Z,18.40
2018-07-17T02:18:32.615Z,18.40
2018-07-17T02:20:59.632Z,18.40
2018-07-17T02:23:26.616Z,18.40
2018-07-17T02:25:53.711Z,18.30
2018-07-17T02:28:20.675Z,18.30
2018-07-17T02:30:47.661Z,18.30
2018-07-17T02:33:14.697Z,18.30
2018-07-17T02:35:41.689Z,18.20
2018-07-17T02:38:08.672Z,18.20
2018-07-17T02:40:35.740Z,18.30
2018-07-17T02:43:03.671Z,18.30
2018-07-17T02:45:30.658Z,18.30
2018-07-17T02:47:57.713Z,18.30
2018-07-17T02:50:24.699Z,18.30
2018-07-17T02:52:51.693Z,18.40
2018-07-17T02:55:19.183Z,18.30
2018-07-17T02:57:46.160Z,18.30
2018-07-17T03:02:53.696Z,18.30
2018-07-17T03:05:20.712Z,18.30
2018-07-17T03:07:47.739Z,18.20
2018-07-17T03:10:14.776Z,18.00
2018-07-17T03:12:41.759Z,17.80
2018-07-17T03:15:08.754Z,17.70
2018-07-17T03:17:36.636Z,17.80
2018-07-17T03:20:03.623Z,17.80
2018-07-17T03:22:30.615Z,17.90
2018-07-17T03:24:57.690Z,17.70
2018-07-17T03:27:24.679Z,17.70
2018-07-17T03:29:51.661Z,17.60
2018-07-17T03:32:18.690Z,17.50
2018-07-17T03:34:45.682Z,17.40
2018-07-17T03:37:12.669Z,17.10
2018-07-17T03:39:39.707Z,17.20
2018-07-17T03:44:33.784Z,17.20
2018-07-17T03:47:00.847Z,17.30
2018-07-17T03:51:55.867Z,17.20
2018-07-17T03:54:22.902Z,17.10
2018-07-17T03:59:16.974Z,17.20
2018-07-17T04:01:44.015Z,17.20
2018-07-17T04:04:11.024Z,17.20
2018-07-17T04:06:37.992Z,17.40
2018-07-17T04:09:05.226Z,17.40
2018-07-17T04:11:32.976Z,17.40
2018-07-17T04:13:59.965Z,17.60
2018-07-17T04:16:26.994Z,17.60
2018-07-17T04:21:32.521Z,17.90
2018-07-17T04:24:00.460Z,18.00
2018-07-17T04:26:27.458Z,17.90
2018-07-17T04:28:54.520Z,18.10
2018-07-17T04:31:21.505Z,18.00
2018-07-17T04:36:16.457Z,18.10
2018-07-17T04:38:43.485Z,18.00
2018-07-17T04:41:11.354Z,18.00
2018-07-17T04:43:38.421Z,18.00
2018-07-17T04:46:05.413Z,18.10
2018-07-17T04:48:32.408Z,18.20
2018-07-17T04:50:59.452Z,18.20
2018-07-17T04:53:26.464Z,18.20
2018-07-17T04:55:53.464Z,18.20
2018-07-17T04:58:20.557Z,18.20
2018-07-17T05:00:47.563Z,18.30
2018-07-17T05:03:14.576Z,18.40
2018-07-17T05:05:41.651Z,18.40
2018-07-17T05:08:08.670Z,18.40
2018-07-17T05:10:35.708Z,18.50
2018-07-17T05:13:02.873Z,18.50
2018-07-17T05:15:29.782Z,18.50
2018-07-17T05:17:57.222Z,18.50
2018-07-17T05:20:24.259Z,18.60
2018-07-17T05:25:29.781Z,18.70
2018-07-17T05:27:56.778Z,18.70
2018-07-17T05:30:23.774Z,18.50
2018-07-17T05:32:50.808Z,18.50
2018-07-17T05:35:17.893Z,18.70
2018-07-17T05:37:44.823Z,18.90
2018-07-17T05:40:11.895Z,18.80
2018-07-17T05:42:38.895Z,18.80
2018-07-17T05:45:05.885Z,19.10
2018-07-17T05:47:33.863Z,19.40
2018-07-17T05:50:00.851Z,19.60
2018-07-17T05:52:27.844Z,19.90
2018-07-17T05:57:22.004Z,19.90
2018-07-17T05:59:49.028Z,20.00
2018-07-17T06:02:16.058Z,20.20
2018-07-17T06:04:43.053Z,19.80
2018-07-17T06:07:10.501Z,20.00
2018-07-17T06:09:37.573Z,20.50
2018-07-17T06:14:32.469Z,21.00
2018-07-17T06:22:25.131Z,20.40
2018-07-17T06:24:52.109Z,20.50
2018-07-17T06:29:46.613Z,20.10
2018-07-17T06:32:13.597Z,20.20
2018-07-17T06:34:41.530Z,20.30
2018-07-17T06:37:08.565Z,20.40
2018-07-17T06:39:36.479Z,20.60
2018-07-17T06:42:03.465Z,20.70
2018-07-17T06:47:10.995Z,20.60
2018-07-17T06:49:38.021Z,20.20
2018-07-17T06:52:05.002Z,20.50
2018-07-17T06:54:31.990Z,20.40
2018-07-17T06:56:59.072Z,20.50
2018-07-17T06:59:26.069Z,20.50
2018-07-17T07:01:53.063Z,20.60
2018-07-17T07:04:20.084Z,20.50
2018-07-17T07:06:47.065Z,20.70
2018-07-17T07:09:14.045Z,20.80
2018-07-17T07:11:41.073Z,20.70
2018-07-17T07:14:08.070Z,20.80
2018-07-17T07:16:35.054Z,20.80
2018-07-17T07:19:02.085Z,20.80
2018-07-17T07:21:29.073Z,20.90
2018-07-17T07:23:56.061Z,20.90
2018-07-17T07:26:23.124Z,20.60
2018-07-17T07:28:50.110Z,20.70
2018-07-17T07:31:17.104Z,20.30
2018-07-17T07:33:44.161Z,20.50
2018-07-17T07:36:11.141Z,20.90
2018-07-17T07:38:38.128Z,21.20
2018-07-17T07:41:05.157Z,21.70
2018-07-17T07:43:32.145Z,22.00
2018-07-17T07:45:59.136Z,21.80
2018-07-17T07:48:26.190Z,22.00
2018-07-17T07:50:53.172Z,22.10
2018-07-17T07:53:20.175Z,22.20
2018-07-17T07:55:47.212Z,21.70
2018-07-17T07:58:14.209Z,21.80
2018-07-17T08:00:41.215Z,22.30
2018-07-17T08:03:08.260Z,22.10
2018-07-17T08:08:13.783Z,22.70
2018-07-17T08:10:40.769Z,23.00
2018-07-17T08:13:07.756Z,23.10
2018-07-17T08:15:34.846Z,23.60
2018-07-17T08:18:01.835Z,23.50
2018-07-17T08:20:28.817Z,23.50
2018-07-17T08:22:55.852Z,23.20
2018-07-17T08:25:22.838Z,23.40
2018-07-17T08:27:50.046Z,23.50
2018-07-17T08:30:17.643Z,23.10
2018-07-17T08:32:44.625Z,23.00
2018-07-17T08:35:11.650Z,23.20
2018-07-17T08:37:38.698Z,22.90
2018-07-17T08:42:32.755Z,22.80
2018-07-17T08:44:59.785Z,22.90
2018-07-17T08:47:26.797Z,23.40
2018-07-17T08:49:53.765Z,23.30
2018-07-17T08:52:20.820Z,23.90
2018-07-17T08:54:47.821Z,24.20
2018-07-17T08:57:14.796Z,23.80
2018-07-17T08:59:41.824Z,24.00
2018-07-17T09:02:08.808Z,23.70
2018-07-17T09:04:35.794Z,24.20
2018-07-17T09:09:29.904Z,24.50
2018-07-17T09:11:56.889Z,23.90
2018-07-17T09:14:23.972Z,24.00
2018-07-17T09:16:50.970Z,23.80
2018-07-17T09:19:17.974Z,23.20
2018-07-17T09:21:45.010Z,23.30
2018-07-17T09:26:52.529Z,23.90
2018-07-17T09:29:19.511Z,23.80
2018-07-17T09:31:46.500Z,23.50
2018-07-17T09:34:13.523Z,23.60
2018-07-17T09:36:40.508Z,23.80
2018-07-17T09:39:07.497Z,23.50
2018-07-17T09:41:34.549Z,23.60
2018-07-17T09:44:02.344Z,23.80
2018-07-17T09:46:29.341Z,23.70
2018-07-17T09:48:56.379Z,23.40
2018-07-17T09:51:23.353Z,23.30
2018-07-17T09:53:50.344Z,23.10
2018-07-17T09:56:18.024Z,23.00
2018-07-17T09:58:45.009Z,22.90
2018-07-17T10:01:12.002Z,22.80
2018-07-17T10:03:39.030Z,22.70
2018-07-17T10:08:33.089Z,22.80
2018-07-17T10:11:00.124Z,22.60
2018-07-17T10:13:27.123Z,22.70
2018-07-17T10:15:54.108Z,23.00
2018-07-17T10:18:21.161Z,23.20
2018-07-17T10:20:48.157Z,23.40
2018-07-17T10:25:42.288Z,23.60
2018-07-17T10:28:09.272Z,23.50
2018-07-17T10:30:36.281Z,23.80
2018-07-17T10:33:04.153Z,23.60
2018-07-17T10:35:31.154Z,23.80
2018-07-17T10:37:58.145Z,23.70
2018-07-17T10:40:25.207Z,23.60
2018-07-17T10:45:32.708Z,23.80
2018-07-17T10:47:59.692Z,24.00
2018-07-17T10:50:26.684Z,23.90
2018-07-17T10:52:53.707Z,23.90
2018-07-17T10:55:20.696Z,24.00
2018-07-17T10:57:47.676Z,24.10
2018-07-17T11:00:14.747Z,24.00
2018-07-17T11:02:41.739Z,23.70
2018-07-17T11:05:08.724Z,23.40
2018-07-17T11:07:35.755Z,23.30
2018-07-17T11:10:02.736Z,23.40
2018-07-17T11:12:29.724Z,23.70
2018-07-17T11:14:56.797Z,23.80
2018-07-17T11:17:23.782Z,23.70
2018-07-17T11:19:50.769Z,23.30
2018-07-17T11:27:11.977Z,23.20
2018-07-17T11:29:39.016Z,23.40
2018-07-17T11:32:06.016Z,23.60
2018-07-17T11:34:32.984Z,23.70
2018-07-17T11:37:00.037Z,23.80
2018-07-17T11:39:27.025Z,23.70
2018-07-17T11:44:21.132Z,22.70
2018-07-17T11:46:48.117Z,22.40
2018-07-17T11:49:15.104Z,22.30
2018-07-17T11:51:42.136Z,21.80
2018-07-17T11:54:09.134Z,22.00
2018-07-17T11:56:36.133Z,22.00
2018-07-17T11:59:03.233Z,22.00
2018-07-17T12:01:30.180Z,22.10
2018-07-17T12:11:29.842Z,22.90
2018-07-17T12:13:56.904Z,23.10
2018-07-17T12:16:23.892Z,23.10
2018-07-17T12:18:50.884Z,23.20
2018-07-17T12:21:17.941Z,23.10
2018-07-17T12:23:44.933Z,23.00
2018-07-17T12:26:11.923Z,22.80
2018-07-17T12:28:38.952Z,22.90
2018-07-17T12:31:05.943Z,22.30
2018-07-17T12:33:32.929Z,22.00
2018-07-17T12:35:59.979Z,22.00
2018-07-17T12:38:26.967Z,22.00
2018-07-17T12:40:53.951Z,22.10
2018-07-17T12:43:20.983Z,22.40
2018-07-17T12:45:47.978Z,22.50
2018-07-17T12:48:14.976Z,23.00
2018-07-17T12:50:42.976Z,23.20
2018-07-17T12:53:09.964Z,23.20
2018-07-17T12:55:36.952Z,23.10
2018-07-17T12:58:04.060Z,22.90
2018-07-17T13:00:30.959Z,22.90
2018-07-17T13:02:57.957Z,22.80
2018-07-17T13:05:25.006Z,22.60
2018-07-17T13:07:51.984Z,22.70
2018-07-17T13:10:18.975Z,22.60
2018-07-17T13:12:46.036Z,22.50
2018-07-17T13:17:40.813Z,22.40
2018-07-17T13:20:07.793Z,22.40
2018-07-17T13:27:40.394Z,21.90
2018-07-17T13:30:07.374Z,22.10
2018-07-17T13:32:34.360Z,22.00
2018-07-17T13:35:01.397Z,21.90
2018-07-17T13:37:28.381Z,21.90
2018-07-17T13:39:55.366Z,21.90
2018-07-17T13:42:22.419Z,22.00
2018-07-17T13:44:49.476Z,22.30
2018-07-17T13:49:43.511Z,22.70
2018-07-17T13:52:10.506Z,22.60
2018-07-17T13:54:37.501Z,22.40
2018-07-17T13:57:04.545Z,22.40
2018-07-17T14:01:58.626Z,22.90
2018-07-17T14:04:25.670Z,23.00
2018-07-17T14:06:52.739Z,22.90
2018-07-17T14:09:19.693Z,23.00
2018-07-17T14:11:46.760Z,22.90
2018-07-17T14:14:13.750Z,23.00
2018-07-17T14:16:40.754Z,22.70
2018-07-17T14:19:07.787Z,22.60
2018-07-17T14:21:34.787Z,22.30
2018-07-17T14:24:01.768Z,22.40
2018-07-17T14:26:29.636Z,22.30
2018-07-17T14:28:56.620Z,22.40
2018-07-17T14:31:23.606Z,22.40
2018-07-17T14:36:28.599Z,22.80
2018-07-17T14:38:56.455Z,22.90
2018-07-17T14:41:23.507Z,22.90
2018-07-17T14:43:50.435Z,23.10
2018-07-17T14:46:17.465Z,23.10
2018-07-17T14:48:44.453Z,22.90
2018-07-17T14:51:11.447Z,22.70
2018-07-17T14:53:38.488Z,22.60
2018-07-17T14:58:32.605Z,22.70
2018-07-17T15:00:59.628Z,22.90
2018-07-17T15:03:26.611Z,22.80
2018-07-17T15:05:53.602Z,23.00
2018-07-17T15:08:20.637Z,23.10
2018-07-17T15:10:47.617Z,23.10
2018-07-17T15:13:14.608Z,23.10
2018-07-17T15:15:41.728Z,23.20
2018-07-17T15:18:08.650Z,23.20
2018-07-17T15:20:35.645Z,23.40
2018-07-17T15:23:02.665Z,23.50
2018-07-17T15:25:30.555Z,23.60
2018-07-17T15:27:57.576Z,23.20
2018-07-17T15:30:24.595Z,23.00
2018-07-17T15:32:51.585Z,22.70
2018-07-17T15:35:18.623Z,22.60
2018-07-17T15:37:45.614Z,22.70
2018-07-17T15:42:39.669Z,22.60
2018-07-17T15:45:06.729Z,22.60
2018-07-17T15:50:13.242Z,22.30
2018-07-17T15:52:40.230Z,22.40
2018-07-17T15:55:07.213Z,22.60
2018-07-17T15:57:34.358Z,22.70
2018-07-17T16:00:01.263Z,22.60
2018-07-17T16:02:28.248Z,22.70
2018-07-17T16:04:55.274Z,22.90
2018-07-17T16:07:22.251Z,23.10
2018-07-17T16:09:49.229Z,23.10
2018-07-17T16:12:16.264Z,23.20
2018-07-17T16:14:43.244Z,23.10
2018-07-17T16:17:10.225Z,23.20
2018-07-17T16:19:37.288Z,23.00
2018-07-17T16:22:04.273Z,22.80
2018-07-17T16:24:31.263Z,22.80
2018-07-17T16:31:52.491Z,22.50
2018-07-17T16:34:19.522Z,22.70
2018-07-17T16:36:46.546Z,22.60
2018-07-17T16:39:13.496Z,22.70
2018-07-17T16:41:40.548Z,22.80
2018-07-17T16:44:07.531Z,22.70
2018-07-17T16:49:01.652Z,22.60
2018-07-17T16:51:28.642Z,22.70
2018-07-17T16:56:34.182Z,22.60
2018-07-17T16:59:01.170Z,22.80
2018-07-17T17:03:55.320Z,22.80
2018-07-17T17:06:22.333Z,23.00
2018-07-17T17:08:49.350Z,23.10
2018-07-17T17:11:16.396Z,23.20
2018-07-17T17:13:43.394Z,23.20
2018-07-17T17:16:10.409Z,23.30
2018-07-17T17:18:37.483Z,23.30
2018-07-17T17:21:04.474Z,23.50
2018-07-17T17:23:31.469Z,23.50
2018-07-17T17:25:58.870Z,23.50
2018-07-17T17:28:25.892Z,23.50
2018-07-17T17:30:52.884Z,23.60
2018-07-17T17:33:20.070Z,23.40
2018-07-17T17:35:47.925Z,23.40
2018-07-17T17:38:14.936Z,23.40
2018-07-17T17:43:09.919Z,23.20
2018-07-17T17:45:36.891Z,23.20
2018-07-17T17:48:03.977Z,23.10
2018-07-17T17:50:30.986Z,23.00
2018-07-17T17:55:26.068Z,22.80
2018-07-17T18:00:33.974Z,22.90
2018-07-17T18:03:00.961Z,22.80
2018-07-17T18:05:27.975Z,22.80
2018-07-17T18:07:55.241Z,22.70
2018-07-17T18:10:22.243Z,22.50
2018-07-17T18:12:49.271Z,22.40
2018-07-17T18:15:16.399Z,22.20
2018-07-17T18:17:43.400Z,22.20
2018-07-17T18:20:10.406Z,22.00
2018-07-17T18:22:37.460Z,21.80
2018-07-17T18:25:04.452Z,22.10
2018-07-17T18:27:31.434Z,22.20
2018-07-17T18:29:58.479Z,22.00
2018-07-17T18:32:25.521Z,22.20
2018-07-17T18:34:53.731Z,22.30
2018-07-17T18:37:20.942Z,22.40
2018-07-17T18:42:15.273Z,22.10
2018-07-17T18:44:42.512Z,22.00
2018-07-17T18:47:09.693Z,22.00
2018-07-17T18:49:37.938Z,22.10
2018-07-17T18:52:06.266Z,22.00
2018-07-17T18:54:33.697Z,21.90
2018-07-17T18:57:00.702Z,21.80
2018-07-17T19:02:07.566Z,21.80
2018-07-17T19:04:34.907Z,22.00
2018-07-17T19:07:01.874Z,22.00
2018-07-17T19:09:29.101Z,22.00
2018-07-17T19:14:34.784Z,21.70
2018-07-17T19:17:01.928Z,21.60
2018-07-17T19:19:29.276Z,21.60
2018-07-17T19:21:56.409Z,21.50
2018-07-17T19:24:23.900Z,21.40
2018-07-17T19:26:51.304Z,21.10
2018-07-17T19:29:18.369Z,20.90
2018-07-17T19:31:45.766Z,20.80
2018-07-17T19:34:13.012Z,21.00
2018-07-17T19:41:36.163Z,21.10
2018-07-17T19:44:04.211Z,21.20
2018-07-17T19:46:32.406Z,20.90
2018-07-17T19:49:00.575Z,20.80
2018-07-17T19:51:28.746Z,20.70
2018-07-17T19:53:56.638Z,20.80
2018-07-17T19:56:24.586Z,20.70
2018-07-17T19:58:52.649Z,20.50
2018-07-17T20:01:21.863Z,20.40
2018-07-17T20:03:50.707Z,20.40
2018-07-17T20:06:19.147Z,20.50
2018-07-17T20:08:46.816Z,20.50
2018-07-17T20:11:14.662Z,20.20
2018-07-17T20:13:42.461Z,20.10
2018-07-17T20:16:10.663Z,20.10
2018-07-17T20:18:38.543Z,20.10
2018-07-17T20:21:05.918Z,20.20
2018-07-17T20:23:33.354Z,20.20
2018-07-17T20:26:00.600Z,20.30
2018-07-17T20:28:27.960Z,20.40
2018-07-17T20:33:37.235Z,20.30
2018-07-17T20:36:04.372Z,20.40
2018-07-17T20:38:31.769Z,20.40
2018-07-17T20:40:58.834Z,20.50
2018-07-17T20:43:26.621Z,20.60
2018-07-17T20:45:53.830Z,20.50
2018-07-17T20:48:20.962Z,20.40
2018-07-17T20:50:47.989Z,20.40
2018-07-17T20:53:15.137Z,20.20
2018-07-17T20:58:20.426Z,20.30
2018-07-17T21:00:47.546Z,20.40
2018-07-17T21:03:14.655Z,20.40
2018-07-17T21:05:41.705Z,20.50
2018-07-17T21:08:08.709Z,20.50
2018-07-17T21:10:35.703Z,20.50
2018-07-17T21:13:02.808Z,20.30
2018-07-17T21:15:29.768Z,20.30
2018-07-17T21:17:56.766Z,20.30
2018-07-17T21:20:23.833Z,20.10
2018-07-17T21:22:50.825Z,20.00
2018-07-17T21:27:44.988Z,19.60
2018-07-17T21:30:11.980Z,19.50
2018-07-17T21:35:06.155Z,19.60
2018-07-17T21:40:11.406Z,19.70
2018-07-17T21:42:38.402Z,19.70
2018-07-17T21:45:05.401Z,19.80
2018-07-17T21:47:32.456Z,19.80
2018-07-17T21:49:59.447Z,19.80
2018-07-17T21:52:26.441Z,19.80
2018-07-17T21:54:53.483Z,19.80
2018-07-17T21:57:20.487Z,19.80
2018-07-17T21:59:47.491Z,19.90
2018-07-17T22:02:14.545Z,19.80
2018-07-17T22:04:42.306Z,19.90
2018-07-17T22:07:09.291Z,19.80
2018-07-17T22:09:36.460Z,19.80
2018-07-17T22:12:03.462Z,19.80
2018-07-17T22:14:30.456Z,19.50
2018-07-17T22:19:35.612Z,19.40
2018-07-17T22:22:02.647Z,19.50
2018-07-17T22:24:29.631Z,19.50
2018-07-17T22:26:56.624Z,19.50
2018-07-17T22:29:23.640Z,19.50
2018-07-17T22:31:50.977Z,19.40
2018-07-17T22:34:17.962Z,19.40
2018-07-17T22:36:45.022Z,19.50
2018-07-17T22:39:12.005Z,19.40
2018-07-17T22:41:38.997Z,19.40
2018-07-17T22:44:06.033Z,19.40
2018-07-17T22:46:33.009Z,19.40
2018-07-17T22:48:59.993Z,19.50
2018-07-17T22:51:27.059Z,19.40
2018-07-17T22:53:54.046Z,19.30
2018-07-17T22:56:21.024Z,19.00
2018-07-17T22:58:48.876Z,19.10
2018-07-17T23:01:15.863Z,19.10
2018-07-17T23:03:42.852Z,19.20
2018-07-17T23:06:10.692Z,19.00
2018-07-17T23:08:38.395Z,19.00
2018-07-17T23:11:05.388Z,19.00
2018-07-17T23:13:32.418Z,19.00
2018-07-17T23:15:59.400Z,18.70
2018-07-17T23:18:26.389Z,18.70
2018-07-17T23:20:53.438Z,18.70
2018-07-17T23:23:20.443Z,18.70
2018-07-17T23:25:47.426Z,18.70
2018-07-17T23:28:14.457Z,18.70
2018-07-17T23:33:09.252Z,18.50
2018-07-17T23:35:36.280Z,18.50
2018-07-17T23:40:41.803Z,18.40
2018-07-17T23:43:09.616Z,18.50
2018-07-17T23:48:03.713Z,18.50
2018-07-17T23:50:32.929Z,18.50
2018-07-17T23:55:27.028Z,18.40
2018-07-17T23:57:54.020Z,18.20
